createdAt,value
2023-05-19T00:00:59.127Z,69.01
2023-05-19T00:02:05.702Z,69.02
2023-05-19T00:03:09.245Z,69.06
2023-05-19T00:04:15.311Z,69.10
2023-05-19T00:05:18.623Z,69.13
2023-05-19T00:06:23.071Z,69.16
2023-05-19T00:07:29.927Z,69.20
2023-05-19T00:08:34.060Z,69.22
2023-05-19T00:09:37.226Z,69.25
2023-05-19T00:10:40.116Z,69.26
2023-05-19T00:11:43.183Z,69.23
2023-05-19T00:12:46.089Z,69.32
2023-05-19T00:13:49.728Z,69.33
2023-05-19T00:14:52.598Z,69.35
2023-05-19T00:15:55.619Z,69.39
2023-05-19T00:16:58.859Z,69.45
2023-05-19T00:18:02.076Z,69.52
2023-05-19T00:19:05.809Z,69.61
2023-05-19T00:20:08.877Z,69.48
2023-05-19T00:21:11.904Z,69.26
2023-05-19T00:22:14.766Z,69.52
2023-05-19T00:23:17.596Z,69.65
2023-05-19T00:24:20.312Z,69.72
2023-05-19T00:25:23.109Z,69.79
2023-05-19T00:26:27.275Z,69.88
2023-05-19T00:27:36.755Z,69.85
2023-05-19T00:28:39.520Z,69.96
2023-05-19T00:29:42.275Z,69.99
2023-05-19T00:30:45.015Z,70.03
2023-05-19T00:31:47.805Z,70.09
2023-05-19T00:32:51.183Z,70.18
2023-05-19T00:33:54.205Z,70.24
2023-05-19T00:34:56.986Z,70.23
2023-05-19T00:36:02.950Z,70.17
2023-05-19T00:37:05.801Z,70.18
2023-05-19T00:38:08.591Z,70.19
2023-05-19T00:39:11.338Z,70.26
2023-05-19T00:40:14.322Z,70.28
2023-05-19T00:41:17.539Z,70.27
2023-05-19T00:42:21.102Z,70.29
2023-05-19T00:43:23.850Z,70.31
2023-05-19T00:44:26.835Z,70.30
2023-05-19T00:45:29.565Z,70.33
2023-05-19T00:46:32.366Z,70.38
2023-05-19T00:47:35.222Z,70.52
2023-05-19T00:48:38.063Z,70.60
2023-05-19T00:49:41.044Z,70.69
2023-05-19T00:50:44.414Z,70.80
2023-05-19T00:51:47.423Z,70.89
2023-05-19T00:52:51.300Z,70.93
2023-05-19T00:53:54.269Z,70.96
2023-05-19T00:54:57.127Z,70.97
2023-05-19T00:55:59.990Z,71.01
2023-05-19T00:57:04.253Z,71.00
2023-05-19T00:58:07.926Z,71.03
2023-05-19T00:59:10.664Z,71.05
2023-05-19T01:00:14.070Z,71.04
2023-05-19T01:01:17.646Z,71.03
2023-05-19T01:02:21.628Z,71.02
2023-05-19T01:03:25.312Z,70.96
2023-05-19T01:04:29.775Z,70.94
2023-05-19T01:05:32.715Z,70.94
2023-05-19T01:06:37.987Z,70.97
2023-05-19T01:07:41.799Z,70.96
2023-05-19T01:08:44.827Z,71.01
2023-05-19T01:09:48.755Z,71.01
2023-05-19T01:10:51.648Z,71.00
2023-05-19T01:11:54.595Z,71.01
2023-05-19T01:12:57.366Z,70.99
2023-05-19T01:14:00.351Z,70.99
2023-05-19T01:15:04.071Z,70.96
2023-05-19T01:16:12.642Z,71.00
2023-05-19T01:17:27.694Z,71.05
2023-05-19T01:18:44.441Z,71.09
2023-05-19T01:20:06.699Z,71.16
2023-05-19T01:21:28.668Z,71.21
2023-05-19T01:22:32.102Z,71.22
2023-05-19T01:23:52.011Z,71.21
2023-05-19T01:25:13.309Z,71.19
2023-05-19T01:26:42.647Z,71.18
2023-05-19T01:27:54.470Z,71.19
2023-05-19T01:29:32.761Z,71.20
2023-05-19T01:32:05.051Z,71.25
2023-05-19T01:33:09.479Z,71.33
2023-05-19T01:34:13.301Z,71.41
2023-05-19T01:35:16.775Z,71.42
2023-05-19T01:36:20.445Z,71.42
2023-05-19T01:37:23.874Z,71.46
2023-05-19T01:38:28.450Z,71.48
2023-05-19T01:39:31.918Z,71.48
2023-05-19T01:40:35.054Z,71.44
2023-05-19T01:41:38.523Z,71.42
2023-05-19T01:42:42.103Z,71.40
2023-05-19T01:43:45.635Z,71.40
2023-05-19T01:44:48.708Z,71.42
2023-05-19T01:45:52.119Z,71.43
2023-05-19T01:46:55.074Z,71.47
2023-05-19T01:47:59.174Z,71.50
2023-05-19T01:49:02.182Z,71.53
2023-05-19T01:50:05.079Z,71.57
2023-05-19T01:51:07.766Z,71.63
2023-05-19T01:52:11.292Z,71.65
2023-05-19T01:53:14.832Z,71.68
2023-05-19T01:54:17.552Z,71.73
2023-05-19T01:55:22.849Z,71.76
2023-05-19T01:56:46.585Z,71.79
2023-05-19T01:58:07.985Z,71.82
2023-05-19T01:59:24.169Z,71.83
2023-05-19T02:00:46.076Z,71.90
2023-05-19T02:01:53.703Z,71.96
2023-05-19T02:03:11.893Z,71.98
2023-05-19T02:04:21.620Z,71.96
2023-05-19T02:05:33.600Z,71.96
2023-05-19T02:06:36.287Z,71.98
2023-05-19T02:07:45.147Z,72.01
2023-05-19T02:08:50.580Z,72.05
2023-05-19T02:10:02.751Z,72.08
2023-05-19T02:11:14.630Z,72.08
2023-05-19T02:12:23.381Z,72.13
2023-05-19T02:13:29.957Z,72.16
2023-05-19T02:14:39.723Z,72.18
2023-05-19T02:15:43.862Z,72.23
2023-05-19T02:16:47.957Z,72.25
2023-05-19T02:17:52.182Z,72.27
2023-05-19T02:18:55.417Z,72.28
2023-05-19T02:19:58.180Z,72.27
2023-05-19T02:21:01.701Z,72.26
2023-05-19T02:22:04.632Z,72.29
2023-05-19T02:23:07.332Z,72.33
2023-05-19T02:24:10.959Z,72.39
2023-05-19T02:25:14.292Z,72.44
2023-05-19T02:26:17.304Z,72.35
2023-05-19T02:27:20.017Z,72.49
2023-05-19T02:28:23.095Z,72.55
2023-05-19T02:29:26.037Z,72.62
2023-05-19T02:30:28.825Z,72.66
2023-05-19T02:31:31.560Z,72.66
2023-05-19T02:32:34.701Z,72.69
2023-05-19T02:33:37.714Z,72.70
2023-05-19T02:34:42.252Z,72.71
2023-05-19T02:35:45.001Z,72.76
2023-05-19T02:36:49.954Z,72.79
2023-05-19T02:37:52.828Z,72.84
2023-05-19T02:38:55.977Z,72.87
2023-05-19T02:39:58.674Z,72.93
2023-05-19T02:41:01.482Z,72.94
2023-05-19T02:42:04.311Z,72.97
2023-05-19T02:43:08.084Z,72.98
2023-05-19T02:44:10.866Z,72.98
2023-05-19T02:45:14.339Z,73.01
2023-05-19T02:46:17.198Z,72.96
2023-05-19T02:47:20.127Z,72.95
2023-05-19T02:48:22.882Z,72.92
2023-05-19T02:49:26.224Z,72.90
2023-05-19T02:50:30.486Z,72.86
2023-05-19T02:51:33.288Z,72.82
2023-05-19T02:52:36.214Z,72.77
2023-05-19T02:53:38.947Z,72.75
2023-05-19T02:54:41.682Z,72.72
2023-05-19T02:55:44.412Z,72.67
2023-05-19T02:56:47.287Z,72.63
2023-05-19T02:57:50.548Z,72.65
2023-05-19T02:58:53.344Z,72.62
2023-05-19T02:59:56.560Z,72.61
2023-05-19T03:00:59.305Z,72.57
2023-05-19T03:02:03.034Z,72.50
2023-05-19T03:03:05.891Z,72.47
2023-05-19T03:04:08.757Z,72.47
2023-05-19T03:05:11.677Z,72.43
2023-05-19T03:06:15.613Z,72.43
2023-05-19T03:07:18.451Z,72.43
2023-05-19T03:08:21.177Z,72.39
2023-05-19T03:09:23.976Z,72.35
2023-05-19T03:10:26.853Z,72.32
2023-05-19T03:11:30.998Z,72.30
2023-05-19T03:12:33.846Z,72.18
2023-05-19T03:13:36.700Z,72.03
2023-05-19T03:14:39.500Z,72.10
2023-05-19T03:15:42.625Z,72.04
2023-05-19T03:16:45.792Z,71.98
2023-05-19T03:17:48.833Z,71.94
2023-05-19T03:18:52.359Z,71.87
2023-05-19T03:19:55.109Z,71.81
2023-05-19T03:20:57.969Z,71.80
2023-05-19T03:22:00.777Z,71.73
2023-05-19T03:23:03.601Z,71.59
2023-05-19T03:24:06.752Z,71.45
2023-05-19T03:25:10.257Z,71.39
2023-05-19T03:26:13.688Z,71.36
2023-05-19T03:27:16.620Z,71.05
2023-05-19T03:28:20.033Z,70.32
2023-05-19T03:29:22.868Z,67.61
2023-05-19T03:30:27.083Z,69.54
2023-05-19T03:31:53.585Z,70.39
2023-05-19T03:32:56.467Z,70.62
2023-05-19T03:33:59.464Z,70.69
2023-05-19T03:35:02.205Z,70.70
2023-05-19T03:36:05.371Z,70.65
2023-05-19T03:37:10.955Z,70.59
2023-05-19T03:38:15.515Z,70.55
2023-05-19T03:39:25.169Z,70.51
2023-05-19T03:40:28.089Z,70.37
2023-05-19T03:41:36.686Z,66.13
2023-05-19T03:42:39.864Z,64.06
2023-05-19T03:43:42.745Z,64.28
2023-05-19T03:44:46.364Z,65.16
2023-05-19T03:45:49.460Z,65.84
2023-05-19T03:47:21.492Z,66.33
2023-05-19T03:48:36.938Z,66.87
2023-05-19T03:50:03.254Z,67.09
2023-05-19T03:51:38.318Z,65.79
2023-05-19T03:52:53.710Z,63.70
2023-05-19T03:54:04.631Z,63.59
2023-05-19T03:55:07.829Z,64.43
2023-05-19T03:56:13.656Z,65.26
2023-05-19T03:57:16.686Z,64.64
2023-05-19T03:58:19.492Z,65.05
2023-05-19T03:59:23.689Z,64.99
2023-05-19T04:00:26.623Z,63.84
2023-05-19T04:01:29.495Z,65.18
2023-05-19T04:02:33.977Z,65.81
2023-05-19T04:03:36.991Z,65.85
2023-05-19T04:04:39.928Z,63.95
2023-05-19T04:05:42.829Z,64.39
2023-05-19T04:06:45.716Z,65.85
2023-05-19T04:07:48.501Z,64.17
2023-05-19T04:08:51.255Z,63.40
2023-05-19T04:09:54.339Z,63.69
2023-05-19T04:10:57.080Z,63.87
2023-05-19T04:12:00.059Z,63.33
2023-05-19T04:13:02.883Z,63.10
2023-05-19T04:14:06.026Z,63.61
2023-05-19T04:15:11.524Z,63.13
2023-05-19T04:16:14.642Z,63.48
2023-05-19T04:17:17.566Z,63.45
2023-05-19T04:18:20.658Z,63.37
2023-05-19T04:19:23.576Z,63.46
2023-05-19T04:20:26.497Z,63.01
2023-05-19T04:21:29.194Z,62.75
2023-05-19T04:22:32.168Z,63.48
2023-05-19T04:23:34.929Z,63.91
2023-05-19T04:24:37.907Z,62.84
2023-05-19T04:25:41.939Z,63.38
2023-05-19T04:26:47.169Z,63.30
2023-05-19T04:27:53.025Z,63.76
2023-05-19T04:28:56.622Z,63.23
2023-05-19T04:29:59.571Z,63.21
2023-05-19T04:31:03.588Z,62.91
2023-05-19T04:32:06.801Z,62.95
2023-05-19T04:33:10.125Z,62.91
2023-05-19T04:34:13.239Z,63.23
2023-05-19T04:35:17.840Z,63.65
2023-05-19T04:36:21.843Z,64.37
2023-05-19T04:37:26.723Z,64.58
2023-05-19T04:38:30.108Z,63.13
2023-05-19T04:39:33.404Z,63.27
2023-05-19T04:40:37.164Z,62.85
2023-05-19T04:41:40.595Z,62.96
2023-05-19T04:42:46.184Z,63.92
2023-05-19T04:43:50.259Z,64.34
2023-05-19T04:44:54.147Z,63.68
2023-05-19T04:45:58.279Z,62.51
2023-05-19T04:47:01.729Z,62.86
2023-05-19T04:48:05.140Z,63.68
2023-05-19T04:49:08.111Z,64.04
2023-05-19T04:50:11.458Z,63.36
2023-05-19T04:51:17.742Z,63.31
2023-05-19T04:52:22.763Z,62.79
2023-05-19T04:53:26.560Z,63.11
2023-05-19T04:54:29.390Z,62.34
2023-05-19T04:55:33.082Z,62.77
2023-05-19T04:56:36.713Z,62.96
2023-05-19T04:57:40.547Z,62.74
2023-05-19T04:58:44.937Z,63.25
2023-05-19T04:59:48.000Z,63.78
2023-05-19T05:00:51.629Z,62.55
2023-05-19T05:01:55.676Z,62.34
2023-05-19T05:03:00.105Z,62.32
2023-05-19T05:04:04.913Z,62.13
2023-05-19T05:05:08.312Z,62.37
2023-05-19T05:06:11.840Z,62.22
2023-05-19T05:07:14.653Z,62.68
2023-05-19T05:08:23.155Z,62.53
2023-05-19T05:09:26.105Z,62.62
2023-05-19T05:10:29.386Z,63.08
2023-05-19T05:11:32.416Z,63.44
2023-05-19T05:12:36.959Z,63.28
2023-05-19T05:13:40.301Z,63.26
2023-05-19T05:14:43.214Z,63.16
2023-05-19T05:15:46.549Z,63.09
2023-05-19T05:16:50.016Z,63.19
2023-05-19T05:17:57.048Z,63.09
2023-05-19T05:19:01.257Z,63.10
2023-05-19T05:20:06.336Z,63.10
2023-05-19T05:21:09.272Z,62.91
2023-05-19T05:22:12.305Z,62.85
2023-05-19T05:23:16.749Z,62.52
2023-05-19T05:24:21.082Z,62.63
2023-05-19T05:25:28.921Z,62.71
2023-05-19T05:26:33.686Z,63.20
2023-05-19T05:27:36.884Z,62.79
2023-05-19T05:28:41.462Z,62.77
2023-05-19T05:29:44.374Z,62.94
2023-05-19T05:30:47.177Z,62.97
2023-05-19T05:31:50.528Z,63.33
2023-05-19T05:32:53.408Z,63.15
2023-05-19T05:34:15.002Z,63.31
2023-05-19T05:35:18.726Z,63.13
2023-05-19T05:36:21.587Z,63.09
2023-05-19T05:37:24.419Z,63.01
2023-05-19T05:38:27.904Z,62.92
2023-05-19T05:39:31.904Z,62.83
2023-05-19T05:40:35.734Z,62.84
2023-05-19T05:41:38.803Z,62.81
2023-05-19T05:42:46.463Z,62.83
2023-05-19T05:43:49.575Z,62.65
2023-05-19T05:44:52.400Z,62.78
2023-05-19T05:45:55.477Z,62.83
2023-05-19T05:46:58.384Z,62.63
2023-05-19T05:48:01.449Z,62.53
2023-05-19T05:49:04.667Z,62.46
2023-05-19T05:50:09.094Z,62.60
2023-05-19T05:51:12.320Z,63.11
2023-05-19T05:52:15.327Z,62.92
2023-05-19T05:53:22.120Z,63.20
2023-05-19T05:54:26.694Z,62.89
2023-05-19T05:55:29.864Z,62.91
2023-05-19T05:56:37.217Z,62.70
2023-05-19T05:57:44.156Z,63.00
2023-05-19T05:58:47.078Z,62.91
2023-05-19T05:59:50.864Z,62.84
2023-05-19T06:00:57.715Z,62.86
2023-05-19T06:02:01.712Z,62.72
2023-05-19T06:03:05.991Z,62.66
2023-05-19T06:04:08.892Z,62.89
2023-05-19T06:05:12.697Z,63.06
2023-05-19T06:06:16.419Z,63.14
2023-05-19T06:07:19.146Z,63.04
2023-05-19T06:08:22.080Z,63.18
2023-05-19T06:09:25.028Z,63.05
2023-05-19T06:10:28.533Z,62.86
2023-05-19T06:11:32.242Z,62.79
2023-05-19T06:12:35.402Z,62.90
2023-05-19T06:13:38.840Z,62.81
2023-05-19T06:14:43.015Z,62.81
2023-05-19T06:16:06.233Z,62.77
2023-05-19T06:17:15.252Z,62.73
2023-05-19T06:18:18.305Z,62.70
2023-05-19T06:19:25.438Z,62.66
2023-05-19T06:20:28.656Z,62.65
2023-05-19T06:21:32.379Z,62.78
2023-05-19T06:22:35.357Z,62.57
2023-05-19T06:23:38.585Z,62.62
2023-05-19T06:24:41.676Z,63.15
2023-05-19T06:25:45.206Z,62.70
2023-05-19T06:26:48.364Z,62.50
2023-05-19T06:27:52.459Z,62.46
2023-05-19T06:28:56.465Z,62.35
2023-05-19T06:29:59.985Z,62.30
2023-05-19T06:31:03.404Z,62.25
2023-05-19T06:32:22.565Z,62.41
2023-05-19T06:33:28.216Z,62.56
2023-05-19T06:34:32.796Z,62.33
2023-05-19T06:35:35.713Z,62.38
2023-05-19T06:36:38.728Z,62.30
2023-05-19T06:37:41.539Z,62.30
2023-05-19T06:38:44.377Z,62.32
2023-05-19T06:39:47.850Z,62.13
2023-05-19T06:40:50.791Z,62.11
2023-05-19T06:41:54.420Z,62.18
2023-05-19T06:43:16.692Z,62.16
2023-05-19T06:44:30.272Z,62.12
2023-05-19T06:45:33.276Z,62.31
2023-05-19T06:46:37.220Z,62.32
2023-05-19T06:47:44.612Z,62.29
2023-05-19T06:48:47.791Z,62.27
2023-05-19T06:49:55.183Z,62.17
2023-05-19T06:51:00.002Z,62.37
2023-05-19T06:52:03.157Z,62.23
2023-05-19T06:53:06.275Z,62.12
2023-05-19T06:54:11.195Z,62.03
2023-05-19T06:55:14.053Z,62.09
2023-05-19T06:56:18.599Z,61.95
2023-05-19T06:57:21.652Z,61.94
2023-05-19T06:58:24.534Z,61.81
2023-05-19T06:59:27.290Z,61.63
2023-05-19T07:00:30.088Z,61.71
2023-05-19T07:01:34.418Z,61.74
2023-05-19T07:02:37.590Z,61.61
2023-05-19T07:03:41.019Z,61.53
2023-05-19T07:04:44.743Z,61.56
2023-05-19T07:05:48.510Z,61.83
2023-05-19T07:06:51.424Z,61.72
2023-05-19T07:07:54.591Z,61.32
2023-05-19T07:09:00.095Z,61.26
2023-05-19T07:10:04.634Z,61.26
2023-05-19T07:11:07.867Z,61.21
2023-05-19T07:12:10.895Z,61.41
2023-05-19T07:13:13.763Z,61.42
2023-05-19T07:14:17.002Z,61.42
2023-05-19T07:15:20.119Z,61.48
2023-05-19T07:16:23.006Z,61.57
2023-05-19T07:17:26.281Z,61.54
2023-05-19T07:18:31.963Z,61.75
2023-05-19T07:19:35.210Z,61.83
2023-05-19T07:20:37.921Z,61.86
2023-05-19T07:21:42.557Z,61.86
2023-05-19T07:22:46.208Z,61.86
2023-05-19T07:23:49.096Z,61.84
2023-05-19T07:24:51.826Z,61.79
2023-05-19T07:25:56.320Z,61.77
2023-05-19T07:26:59.361Z,61.76
2023-05-19T07:28:02.480Z,61.68
2023-05-19T07:29:05.324Z,61.64
2023-05-19T07:30:08.486Z,61.68
2023-05-19T07:31:11.253Z,62.01
2023-05-19T07:32:14.274Z,61.93
2023-05-19T07:33:17.452Z,61.91
2023-05-19T07:34:22.107Z,61.82
2023-05-19T07:35:26.654Z,61.63
2023-05-19T07:36:29.429Z,61.49
2023-05-19T07:37:32.163Z,61.52
2023-05-19T07:38:35.233Z,61.59
2023-05-19T07:39:37.957Z,61.50
2023-05-19T07:40:40.843Z,61.42
2023-05-19T07:41:43.652Z,61.31
2023-05-19T07:42:46.427Z,61.19
2023-05-19T07:43:50.042Z,61.26
2023-05-19T07:44:52.857Z,61.24
2023-05-19T07:45:58.675Z,61.22
2023-05-19T07:47:01.607Z,61.25
2023-05-19T07:48:04.777Z,61.15
2023-05-19T07:49:07.579Z,61.05
2023-05-19T07:50:10.431Z,60.81
2023-05-19T07:51:13.360Z,60.90
2023-05-19T07:52:18.241Z,60.84
2023-05-19T07:53:22.696Z,60.70
2023-05-19T07:54:26.180Z,60.68
2023-05-19T07:55:28.919Z,60.73
2023-05-19T07:56:31.672Z,60.75
2023-05-19T07:57:34.426Z,60.69
2023-05-19T07:58:37.221Z,60.54
2023-05-19T07:59:40.219Z,60.23
2023-05-19T08:00:43.226Z,60.20
2023-05-19T08:01:45.950Z,60.29
2023-05-19T08:02:48.899Z,60.26
2023-05-19T08:03:51.929Z,60.22
2023-05-19T08:04:54.997Z,60.09
2023-05-19T08:05:58.057Z,60.09
2023-05-19T08:07:00.848Z,59.64
2023-05-19T08:08:03.898Z,59.45
2023-05-19T08:09:06.713Z,59.30
2023-05-19T08:10:09.681Z,59.74
2023-05-19T08:11:12.563Z,59.96
2023-05-19T08:12:15.504Z,60.00
2023-05-19T08:13:18.293Z,60.19
2023-05-19T08:14:22.921Z,60.43
2023-05-19T08:15:26.621Z,61.06
2023-05-19T08:16:29.703Z,60.92
2023-05-19T08:17:32.491Z,61.47
2023-05-19T08:18:35.328Z,61.85
2023-05-19T08:19:38.124Z,62.31
2023-05-19T08:20:41.142Z,62.09
2023-05-19T08:21:44.855Z,62.33
2023-05-19T08:22:47.636Z,62.49
2023-05-19T08:23:50.624Z,62.38
2023-05-19T08:24:53.424Z,62.05
2023-05-19T08:25:56.450Z,61.83
2023-05-19T08:26:59.468Z,61.68
2023-05-19T08:28:02.346Z,62.00
2023-05-19T08:29:05.133Z,61.60
2023-05-19T08:30:08.284Z,61.38
2023-05-19T08:31:11.289Z,61.00
2023-05-19T08:32:14.235Z,61.04
2023-05-19T08:33:17.498Z,60.80
2023-05-19T08:34:20.808Z,60.45
2023-05-19T08:35:23.780Z,60.25
2023-05-19T08:36:27.693Z,60.39
2023-05-19T08:37:31.985Z,60.64
2023-05-19T08:38:36.029Z,60.43
2023-05-19T08:39:38.765Z,60.28
2023-05-19T08:40:42.234Z,60.50
2023-05-19T08:41:45.024Z,60.40
2023-05-19T08:42:47.884Z,59.89
2023-05-19T08:43:50.777Z,59.83
2023-05-19T08:44:53.473Z,59.48
2023-05-19T08:45:56.551Z,59.10
2023-05-19T08:47:02.850Z,59.15
2023-05-19T08:48:06.434Z,59.39
2023-05-19T08:49:12.168Z,59.61
2023-05-19T08:50:17.311Z,60.26
2023-05-19T08:51:23.200Z,60.31
2023-05-19T08:52:33.073Z,60.64
2023-05-19T08:53:40.683Z,61.39
2023-05-19T08:54:46.970Z,61.65
2023-05-19T08:56:01.468Z,61.89
2023-05-19T08:57:05.612Z,61.29
2023-05-19T08:58:08.765Z,62.29
2023-05-19T08:59:13.302Z,62.32
2023-05-19T09:00:17.015Z,62.40
2023-05-19T09:01:20.465Z,62.54
2023-05-19T09:02:23.825Z,62.02
2023-05-19T09:03:29.134Z,61.73
2023-05-19T09:04:32.342Z,61.40
2023-05-19T09:05:35.704Z,61.57
2023-05-19T09:06:41.109Z,61.26
2023-05-19T09:07:44.988Z,61.70
2023-05-19T09:08:48.320Z,61.58
2023-05-19T09:09:51.080Z,60.84
2023-05-19T09:10:53.852Z,60.77
2023-05-19T09:11:56.749Z,61.20
2023-05-19T09:12:59.776Z,60.71
2023-05-19T09:14:02.558Z,60.05
2023-05-19T09:15:06.021Z,60.20
2023-05-19T09:16:08.909Z,59.86
2023-05-19T09:17:12.234Z,59.70
2023-05-19T09:18:15.334Z,60.00
2023-05-19T09:19:18.189Z,59.33
2023-05-19T09:20:21.080Z,59.08
2023-05-19T09:21:33.270Z,58.97
2023-05-19T09:22:40.906Z,58.75
2023-05-19T09:23:47.143Z,58.67
2023-05-19T09:24:50.014Z,58.75
2023-05-19T09:25:53.426Z,59.12
2023-05-19T09:27:00.443Z,59.00
2023-05-19T09:28:03.626Z,59.67
2023-05-19T09:29:16.498Z,60.08
2023-05-19T09:30:19.777Z,60.06
2023-05-19T09:31:22.609Z,59.89
2023-05-19T09:32:26.792Z,59.85
2023-05-19T09:33:31.059Z,60.35
2023-05-19T09:34:33.794Z,60.51
2023-05-19T09:35:37.115Z,60.62
2023-05-19T09:36:42.657Z,60.54
2023-05-19T09:37:46.326Z,60.24
2023-05-19T09:38:49.352Z,60.48
2023-05-19T09:39:53.528Z,60.68
2023-05-19T09:40:58.018Z,60.79
2023-05-19T09:42:04.535Z,60.64
2023-05-19T09:43:08.091Z,61.25
2023-05-19T09:44:32.779Z,61.26
2023-05-19T09:45:36.136Z,61.37
2023-05-19T09:46:38.997Z,61.17
2023-05-19T09:47:42.234Z,61.15
2023-05-19T09:48:45.474Z,61.21
2023-05-19T09:49:48.291Z,61.08
2023-05-19T09:50:53.288Z,60.83
2023-05-19T09:51:59.418Z,60.66
2023-05-19T09:53:02.194Z,60.78
2023-05-19T09:54:05.065Z,60.70
2023-05-19T09:55:12.704Z,61.04
2023-05-19T09:56:16.132Z,60.52
2023-05-19T09:57:25.090Z,60.43
2023-05-19T09:58:31.317Z,60.48
2023-05-19T09:59:34.816Z,60.66
2023-05-19T10:00:37.987Z,60.67
2023-05-19T10:01:41.685Z,60.48
2023-05-19T10:02:45.726Z,59.87
2023-05-19T10:03:49.181Z,59.67
2023-05-19T10:04:52.472Z,59.65
2023-05-19T10:05:55.845Z,59.74
2023-05-19T10:06:59.845Z,60.05
2023-05-19T10:08:03.338Z,60.08
2023-05-19T10:09:06.228Z,59.73
2023-05-19T10:10:09.653Z,60.29
2023-05-19T10:11:12.482Z,60.03
2023-05-19T10:12:15.415Z,59.97
2023-05-19T10:13:18.566Z,59.91
2023-05-19T10:14:25.407Z,59.63
2023-05-19T10:15:28.274Z,59.48
2023-05-19T10:16:31.773Z,59.59
2023-05-19T10:17:36.019Z,59.73
2023-05-19T10:18:40.252Z,59.88
2023-05-19T10:19:43.968Z,59.98
2023-05-19T10:20:47.706Z,60.15
2023-05-19T10:21:51.077Z,60.01
2023-05-19T10:22:53.913Z,60.00
2023-05-19T10:23:56.698Z,59.93
2023-05-19T10:24:59.461Z,59.34
2023-05-19T10:26:05.099Z,59.41
2023-05-19T10:27:10.288Z,59.42
2023-05-19T10:28:14.808Z,59.51
2023-05-19T10:29:21.797Z,59.51
2023-05-19T10:30:33.432Z,59.40
2023-05-19T10:31:36.873Z,59.26
2023-05-19T10:32:40.867Z,59.35
2023-05-19T10:33:59.624Z,59.45
2023-05-19T10:35:21.406Z,59.30
2023-05-19T10:36:35.505Z,58.98
2023-05-19T10:37:45.023Z,59.01
2023-05-19T10:38:52.598Z,59.06
2023-05-19T10:39:55.999Z,58.82
2023-05-19T10:41:11.791Z,58.96
2023-05-19T10:42:30.052Z,59.18
2023-05-19T10:43:35.891Z,58.93
2023-05-19T10:44:57.386Z,58.93
2023-05-19T10:46:00.325Z,58.80
2023-05-19T10:47:06.372Z,58.84
2023-05-19T10:48:14.352Z,58.78
2023-05-19T10:49:20.739Z,58.62
2023-05-19T10:50:24.034Z,58.22
2023-05-19T10:51:33.564Z,58.46
2023-05-19T10:52:39.988Z,58.50
2023-05-19T10:53:46.465Z,58.54
2023-05-19T10:54:49.626Z,58.43
2023-05-19T10:56:03.970Z,58.56
2023-05-19T10:57:08.325Z,58.74
2023-05-19T10:58:11.512Z,58.42
2023-05-19T10:59:40.483Z,58.24
2023-05-19T11:00:43.612Z,58.44
2023-05-19T11:01:47.187Z,58.54
2023-05-19T11:02:56.375Z,58.67
2023-05-19T11:04:05.011Z,58.87
2023-05-19T11:05:09.638Z,58.80
2023-05-19T11:06:26.506Z,58.91
2023-05-19T11:07:29.980Z,58.69
2023-05-19T11:08:33.852Z,58.76
2023-05-19T11:09:42.970Z,58.73
2023-05-19T11:10:46.471Z,59.01
2023-05-19T11:11:50.462Z,59.02
2023-05-19T11:12:58.186Z,59.09
2023-05-19T11:14:01.357Z,58.91
2023-05-19T11:15:04.342Z,58.93
2023-05-19T11:16:08.425Z,58.93
2023-05-19T11:17:15.752Z,59.02
2023-05-19T11:18:19.425Z,59.05
2023-05-19T11:19:32.090Z,59.20
2023-05-19T11:20:38.894Z,59.23
2023-05-19T11:21:50.396Z,59.32
2023-05-19T11:23:10.171Z,59.39
2023-05-19T11:24:31.848Z,59.52
2023-05-19T11:25:49.812Z,59.74
2023-05-19T11:26:54.789Z,59.67
2023-05-19T11:27:57.987Z,59.83
2023-05-19T11:29:00.979Z,59.71
2023-05-19T11:30:07.693Z,59.74
2023-05-19T11:31:10.865Z,59.58
2023-05-19T11:32:14.091Z,59.47
2023-05-19T11:33:20.017Z,59.38
2023-05-19T11:34:25.983Z,59.34
2023-05-19T11:35:29.580Z,59.40
2023-05-19T11:36:33.222Z,59.40
2023-05-19T11:37:36.786Z,59.25
2023-05-19T11:38:39.614Z,59.37
2023-05-19T11:39:42.345Z,59.54
2023-05-19T11:40:45.433Z,59.20
2023-05-19T11:41:48.141Z,59.10
2023-05-19T11:42:51.212Z,59.05
2023-05-19T11:43:53.974Z,59.13
2023-05-19T11:44:56.774Z,59.17
2023-05-19T11:46:00.953Z,59.31
2023-05-19T11:47:04.480Z,59.26
2023-05-19T11:48:10.994Z,59.24
2023-05-19T11:49:15.096Z,59.25
2023-05-19T11:50:18.105Z,59.25
2023-05-19T11:51:21.681Z,59.33
2023-05-19T11:52:24.837Z,59.41
2023-05-19T11:53:33.257Z,59.38
2023-05-19T11:54:39.314Z,59.37
2023-05-19T11:55:43.600Z,59.04
2023-05-19T11:56:47.507Z,59.10
2023-05-19T11:59:05.097Z,59.01
2023-05-19T12:00:09.485Z,59.09
2023-05-19T12:01:12.300Z,59.23
2023-05-19T12:02:25.150Z,59.39
2023-05-19T12:03:29.782Z,59.38
2023-05-19T12:04:32.833Z,59.36
2023-05-19T12:05:43.660Z,59.73
2023-05-19T12:06:49.082Z,59.72
2023-05-19T12:07:52.458Z,59.57
2023-05-19T12:08:56.413Z,59.84
2023-05-19T12:09:59.880Z,59.70
2023-05-19T12:11:02.652Z,59.66
2023-05-19T12:12:05.557Z,59.58
2023-05-19T12:13:09.989Z,59.71
2023-05-19T12:14:13.203Z,59.74
2023-05-19T12:15:18.767Z,59.65
2023-05-19T12:16:21.596Z,59.64
2023-05-19T12:17:24.499Z,59.56
2023-05-19T12:18:34.092Z,59.45
2023-05-19T12:19:36.984Z,59.43
2023-05-19T12:20:39.777Z,59.47
2023-05-19T12:21:42.608Z,59.55
2023-05-19T12:22:46.075Z,59.44
2023-05-19T12:23:49.387Z,59.60
2023-05-19T12:24:52.844Z,59.57
2023-05-19T12:25:55.798Z,59.44
2023-05-19T12:27:05.729Z,59.38
2023-05-19T12:28:08.474Z,59.41
2023-05-19T12:29:13.101Z,59.34
2023-05-19T12:30:16.728Z,59.14
2023-05-19T12:31:20.559Z,58.97
2023-05-19T12:32:26.907Z,59.00
2023-05-19T12:33:33.483Z,59.04
2023-05-19T12:34:38.335Z,58.70
2023-05-19T12:35:42.258Z,58.67
2023-05-19T12:36:44.987Z,58.71
2023-05-19T12:37:49.214Z,58.74
2023-05-19T12:38:55.218Z,58.80
2023-05-19T12:39:58.417Z,58.86
2023-05-19T12:41:01.207Z,58.68
2023-05-19T12:42:04.441Z,58.37
2023-05-19T12:43:07.961Z,58.01
2023-05-19T12:44:17.556Z,58.12
2023-05-19T12:45:21.435Z,58.31
2023-05-19T12:46:24.203Z,58.32
2023-05-19T12:47:32.567Z,58.50
2023-05-19T12:48:35.420Z,58.70
2023-05-19T12:49:53.274Z,58.65
2023-05-19T12:50:56.887Z,58.59
2023-05-19T12:52:03.046Z,58.73
2023-05-19T12:53:14.265Z,58.91
2023-05-19T12:54:19.470Z,59.05
2023-05-19T12:55:23.234Z,58.93
2023-05-19T12:56:27.160Z,58.83
2023-05-19T12:57:32.481Z,58.94
2023-05-19T12:58:35.292Z,59.08
2023-05-19T12:59:39.048Z,59.34
2023-05-19T13:00:43.653Z,59.04
2023-05-19T13:01:54.955Z,58.97
2023-05-19T13:03:05.736Z,59.04
2023-05-19T13:04:08.968Z,59.15
2023-05-19T13:05:12.061Z,59.34
2023-05-19T13:06:14.793Z,59.58
2023-05-19T13:07:17.495Z,59.43
2023-05-19T13:08:21.671Z,59.53
2023-05-19T13:09:24.614Z,59.82
2023-05-19T13:10:28.178Z,59.91
2023-05-19T13:11:30.856Z,60.00
2023-05-19T13:12:33.676Z,60.09
2023-05-19T13:13:37.070Z,60.46
2023-05-19T13:14:41.960Z,60.26
2023-05-19T13:15:45.479Z,60.29
2023-05-19T13:16:48.288Z,60.37
2023-05-19T13:17:51.687Z,60.41
2023-05-19T13:18:54.937Z,60.40
2023-05-19T13:19:57.897Z,60.46
2023-05-19T13:21:00.641Z,60.41
2023-05-19T13:22:03.695Z,60.33
2023-05-19T13:23:06.757Z,60.33
2023-05-19T13:24:09.680Z,60.47
2023-05-19T13:25:12.479Z,60.59
2023-05-19T13:26:15.500Z,60.58
2023-05-19T13:27:18.379Z,60.99
2023-05-19T13:28:21.169Z,60.84
2023-05-19T13:29:23.975Z,61.04
2023-05-19T13:30:27.178Z,61.18
2023-05-19T13:31:30.032Z,61.38
2023-05-19T13:32:32.914Z,61.72
2023-05-19T13:33:35.653Z,61.75
2023-05-19T13:34:38.511Z,61.58
2023-05-19T13:35:41.395Z,61.47
2023-05-19T13:36:48.228Z,61.52
2023-05-19T13:37:51.043Z,61.55
2023-05-19T13:38:54.272Z,61.92
2023-05-19T13:40:00.158Z,61.87
2023-05-19T13:41:02.970Z,62.18
2023-05-19T13:42:06.398Z,62.18
2023-05-19T13:43:09.826Z,62.42
2023-05-19T13:44:13.021Z,62.43
2023-05-19T13:45:16.277Z,62.67
2023-05-19T13:46:24.248Z,62.52
2023-05-19T13:47:32.888Z,62.07
2023-05-19T13:48:36.214Z,62.19
2023-05-19T13:49:39.166Z,61.92
2023-05-19T13:50:42.602Z,62.86
2023-05-19T13:51:45.444Z,62.19
2023-05-19T13:52:48.243Z,63.67
2023-05-19T13:53:51.251Z,61.29
2023-05-19T13:54:56.919Z,61.31
2023-05-19T13:56:00.528Z,61.76
2023-05-19T13:57:03.212Z,61.31
2023-05-19T13:58:05.962Z,60.92